createdAt,value
2019-06-10T00:02:11.487Z,55.47
2019-06-10T00:04:50.842Z,55.32
2019-06-10T00:07:21.193Z,55.32
2019-06-10T00:09:53.658Z,55.47
2019-06-10T00:12:23.572Z,55.29
2019-06-10T00:14:53.282Z,55.19
2019-06-10T00:17:27.048Z,55.33
2019-06-10T00:19:57.170Z,55.33
2019-06-10T00:22:26.937Z,55.53
2019-06-10T00:24:57.517Z,55.50
2019-06-10T00:27:31.177Z,55.34
2019-06-10T00:30:04.321Z,55.52
2019-06-10T00:32:46.133Z,55.65
2019-06-10T00:35:18.120Z,55.78
2019-06-10T00:37:51.190Z,55.95
2019-06-10T00:40:21.572Z,56.56
2019-06-10T00:42:53.709Z,56.94
2019-06-10T00:45:28.259Z,56.90
2019-06-10T00:48:13.517Z,57.29
2019-06-10T00:50:44.436Z,58.10
2019-06-10T00:53:21.349Z,58.42
2019-06-10T00:55:56.712Z,59.00
2019-06-10T00:58:31.786Z,59.80
2019-06-10T01:01:02.640Z,60.27
2019-06-10T01:03:32.095Z,60.34
2019-06-10T01:06:06.372Z,60.32
2019-06-10T01:08:37.565Z,60.48
2019-06-10T01:11:23.661Z,60.60
2019-06-10T01:13:54.390Z,60.54
2019-06-10T01:16:27.315Z,60.76
2019-06-10T01:19:01.480Z,61.21
2019-06-10T01:21:41.440Z,61.70
2019-06-10T01:24:24.862Z,61.73
2019-06-10T01:26:57.878Z,61.48
2019-06-10T01:29:31.409Z,61.85
2019-06-10T01:32:05.185Z,62.39
2019-06-10T01:34:41.548Z,62.78
2019-06-10T01:37:14.325Z,63.10
2019-06-10T01:39:53.254Z,63.46
2019-06-10T01:42:35.587Z,63.87
2019-06-10T01:45:01.145Z,63.92
2019-06-10T01:47:34.926Z,64.01
2019-06-10T01:50:19.638Z,64.17
2019-06-10T01:53:04.285Z,64.08
2019-06-10T01:55:36.448Z,63.91
2019-06-10T01:58:14.437Z,64.01
2019-06-10T02:00:55.120Z,64.22
2019-06-10T02:03:31.146Z,64.16
2019-06-10T02:06:01.729Z,63.73
2019-06-10T02:08:35.400Z,63.35
2019-06-10T02:11:14.099Z,63.13
2019-06-10T02:13:43.367Z,63.40
2019-06-10T02:16:24.081Z,63.62
2019-06-10T02:19:07.534Z,63.68
2019-06-10T02:21:45.946Z,63.74
2019-06-10T02:24:23.498Z,63.77
2019-06-10T02:27:01.067Z,64.06
2019-06-10T02:29:36.517Z,64.16
2019-06-10T02:32:06.413Z,64.13
2019-06-10T02:34:50.630Z,63.91
2019-06-10T02:37:17.317Z,63.47
2019-06-10T02:39:54.151Z,63.44
2019-06-10T02:42:35.526Z,63.90
2019-06-10T02:45:06.032Z,64.12
2019-06-10T02:47:38.439Z,64.16
2019-06-10T02:50:14.173Z,64.08
2019-06-10T02:52:44.343Z,64.01
2019-06-10T02:55:15.607Z,64.17
2019-06-10T02:57:45.607Z,64.12
2019-06-10T03:00:23.437Z,64.23
2019-06-10T03:02:47.523Z,64.34
2019-06-10T03:05:19.567Z,64.26
2019-06-10T03:07:48.652Z,64.45
2019-06-10T03:10:21.115Z,64.73
2019-06-10T03:12:49.947Z,65.01
2019-06-10T03:15:19.951Z,65.10
2019-06-10T03:17:52.005Z,65.12
2019-06-10T03:20:26.551Z,65.28
2019-06-10T03:22:56.371Z,65.43
2019-06-10T03:25:27.377Z,65.44
2019-06-10T03:27:57.477Z,65.34
2019-06-10T03:30:41.276Z,65.22
2019-06-10T03:32:58.473Z,65.24
2019-06-10T03:35:28.490Z,65.62
2019-06-10T03:37:58.348Z,65.89
2019-06-10T03:40:28.336Z,65.97
2019-06-10T03:42:58.107Z,65.72
2019-06-10T03:45:28.525Z,65.59
2019-06-10T03:47:58.232Z,65.70
2019-06-10T03:50:28.729Z,66.04
2019-06-10T03:53:01.131Z,65.87
2019-06-10T03:55:33.106Z,65.80
2019-06-10T03:58:02.405Z,65.97
2019-06-10T04:00:32.772Z,66.04
2019-06-10T04:03:02.796Z,66.02
2019-06-10T04:05:33.203Z,66.01
2019-06-10T04:11:15.057Z,66.43
2019-06-10T04:13:44.774Z,66.18
2019-06-10T04:16:14.423Z,65.77
2019-06-10T04:18:44.090Z,66.23
2019-06-10T04:21:13.750Z,66.68
2019-06-10T04:23:43.430Z,66.92
2019-06-10T04:26:13.171Z,67.06
2019-06-10T04:28:43.206Z,66.91
2019-06-10T04:31:13.263Z,66.87
2019-06-10T04:33:43.344Z,67.04
2019-06-10T04:36:13.582Z,66.84
2019-06-10T04:38:43.948Z,66.72
2019-06-10T04:41:13.624Z,66.77
2019-06-10T04:43:43.443Z,66.97
2019-06-10T04:46:13.404Z,67.24
2019-06-10T04:48:43.160Z,67.40
2019-06-10T04:51:13.157Z,67.20
2019-06-10T04:53:43.842Z,66.87
2019-06-10T04:56:13.471Z,66.81
2019-06-10T04:58:43.771Z,66.72
2019-06-10T05:01:13.402Z,66.29
2019-06-10T05:03:43.482Z,65.88
2019-06-10T05:06:13.227Z,65.58
2019-06-10T05:08:42.991Z,65.13
2019-06-10T05:11:12.994Z,64.71
2019-06-10T05:13:43.136Z,64.39
2019-06-10T05:16:12.994Z,64.11
2019-06-10T05:18:42.683Z,63.76
2019-06-10T05:21:13.145Z,63.45
2019-06-10T05:23:43.205Z,63.25
2019-06-10T05:26:13.420Z,62.95
2019-06-10T05:28:43.544Z,62.68
2019-06-10T05:31:13.268Z,62.73
2019-06-10T05:33:42.900Z,62.90
2019-06-10T05:36:13.374Z,62.85
2019-06-10T05:38:43.737Z,62.85
2019-06-10T05:41:13.718Z,62.80
2019-06-10T05:43:43.392Z,62.55
2019-06-10T05:46:13.548Z,62.38
2019-06-10T05:48:43.837Z,62.35
2019-06-10T05:51:13.633Z,62.92
2019-06-10T05:53:45.735Z,63.09
2019-06-10T05:56:14.647Z,62.78
2019-06-10T05:58:44.424Z,62.70
2019-06-10T06:01:14.038Z,62.55
2019-06-10T06:03:44.439Z,62.40
2019-06-10T06:06:14.307Z,62.68
2019-06-10T06:08:43.995Z,62.98
2019-06-10T06:11:13.688Z,62.69
2019-06-10T06:13:43.434Z,62.43
2019-06-10T06:16:13.109Z,62.44
2019-06-10T06:18:42.879Z,62.28
2019-06-10T06:21:25.661Z,62.22
2019-06-10T06:23:44.058Z,61.96
2019-06-10T06:26:16.289Z,61.79
2019-06-10T06:28:45.083Z,61.62
2019-06-10T06:31:14.716Z,61.37
2019-06-10T06:33:44.489Z,61.17
2019-06-10T06:36:15.151Z,61.32
2019-06-10T06:38:44.769Z,61.48
2019-06-10T06:41:14.514Z,61.54
2019-06-10T06:43:45.460Z,61.49
2019-06-10T06:46:15.296Z,61.41
2019-06-10T06:48:45.059Z,61.40
2019-06-10T06:51:14.822Z,61.31
2019-06-10T06:53:51.738Z,61.17
2019-06-10T06:56:15.958Z,61.06
2019-06-10T06:58:45.665Z,60.91
2019-06-10T07:01:16.063Z,61.21
2019-06-10T07:03:45.759Z,61.18
2019-06-10T07:06:16.607Z,60.98
2019-06-10T07:09:01.546Z,61.04
2019-06-10T07:11:19.626Z,61.47
2019-06-10T07:13:49.724Z,61.37
2019-06-10T07:16:23.040Z,60.98
2019-06-10T07:18:53.981Z,61.06
2019-06-10T07:21:23.306Z,60.96
2019-06-10T07:23:53.100Z,61.05
2019-06-10T07:26:22.800Z,60.76
2019-06-10T07:28:53.678Z,60.24
2019-06-10T07:31:27.717Z,59.98
2019-06-10T07:33:55.103Z,60.01
2019-06-10T07:36:24.907Z,59.88
2019-06-10T07:38:54.628Z,59.47
2019-06-10T07:41:24.407Z,58.98
2019-06-10T07:43:55.037Z,58.81
2019-06-10T07:46:24.686Z,58.77
2019-06-10T07:48:56.622Z,59.16
2019-06-10T07:51:25.892Z,58.80
2019-06-10T07:53:55.563Z,58.91
2019-06-10T07:56:29.745Z,58.79
2019-06-10T07:58:58.671Z,58.65
2019-06-10T08:01:28.386Z,58.37
2019-06-10T08:03:58.217Z,58.22
2019-06-10T08:06:27.997Z,58.14
2019-06-10T08:09:01.921Z,58.29
2019-06-10T08:11:37.174Z,58.29
2019-06-10T08:14:07.736Z,57.87
2019-06-10T08:16:37.829Z,57.61
2019-06-10T08:19:26.357Z,56.98
2019-06-10T08:21:40.642Z,56.47
2019-06-10T08:24:12.681Z,56.13
2019-06-10T08:26:44.282Z,56.18
2019-06-10T08:29:13.586Z,56.19
2019-06-10T08:31:46.342Z,56.24
2019-06-10T08:34:15.118Z,56.35
2019-06-10T08:36:48.804Z,56.17
2019-06-10T08:39:16.202Z,54.94
2019-06-10T08:41:47.816Z,53.70
2019-06-10T08:44:17.312Z,53.56
2019-06-10T08:46:48.575Z,54.18
2019-06-10T08:49:18.484Z,54.42
2019-06-10T08:51:50.164Z,53.09
2019-06-10T08:54:23.445Z,53.10
2019-06-10T08:56:54.094Z,52.28
2019-06-10T08:59:24.176Z,51.94
2019-06-10T09:01:56.922Z,52.25
2019-06-10T09:04:28.763Z,51.63
2019-06-10T09:06:57.246Z,51.93
2019-06-10T09:09:26.992Z,52.12
2019-06-10T09:11:56.973Z,51.92
2019-06-10T09:14:26.895Z,51.79
2019-06-10T09:16:57.131Z,51.81
2019-06-10T09:19:27.520Z,51.76
2019-06-10T09:21:57.475Z,52.05
2019-06-10T09:24:27.905Z,52.97
2019-06-10T09:26:57.519Z,52.47
2019-06-10T09:29:27.666Z,52.02
2019-06-10T09:31:57.419Z,52.22
2019-06-10T09:34:27.174Z,51.83
2019-06-10T09:36:57.410Z,51.78
2019-06-10T09:42:01.487Z,50.57
2019-06-10T09:44:28.814Z,50.41
2019-06-10T09:47:03.349Z,49.70
2019-06-10T09:49:33.583Z,49.51
2019-06-10T09:52:13.499Z,49.85
2019-06-10T09:54:48.796Z,49.91
2019-06-10T09:57:16.000Z,49.10
2019-06-10T09:59:49.671Z,49.20
2019-06-10T10:02:17.202Z,48.55
2019-06-10T10:04:52.242Z,48.76
2019-06-10T10:07:19.438Z,49.14
2019-06-10T10:09:51.850Z,49.30
2019-06-10T10:12:22.799Z,49.09
2019-06-10T10:14:56.139Z,48.57
2019-06-10T10:17:24.829Z,48.78
2019-06-10T10:19:57.018Z,49.04
2019-06-10T10:22:26.635Z,49.33
2019-06-10T10:24:57.245Z,49.43
2019-06-10T10:27:28.047Z,49.61
2019-06-10T10:29:57.853Z,50.20
2019-06-10T10:32:27.705Z,50.43
2019-06-10T10:34:58.036Z,50.54
2019-06-10T10:37:27.675Z,50.12
2019-06-10T10:40:19.871Z,49.61
2019-06-10T10:43:32.972Z,49.32
2019-06-10T10:45:52.041Z,48.50
2019-06-10T10:48:22.613Z,48.42
2019-06-10T10:50:55.848Z,48.98
2019-06-10T10:53:24.085Z,48.34
2019-06-10T10:55:54.220Z,47.00
2019-06-10T10:58:23.991Z,46.88
2019-06-10T11:00:56.768Z,46.24
2019-06-10T11:03:25.803Z,45.10
2019-06-10T11:06:00.628Z,43.27
2019-06-10T11:08:27.958Z,43.73
2019-06-10T11:11:01.109Z,44.08
2019-06-10T11:13:35.654Z,44.79
2019-06-10T11:16:06.632Z,44.54
2019-06-10T11:18:37.041Z,44.69
2019-06-10T11:21:18.988Z,44.78
2019-06-10T11:23:50.103Z,44.92
2019-06-10T11:26:32.726Z,44.39
2019-06-10T11:29:02.912Z,44.22
2019-06-10T11:31:32.956Z,44.27
2019-06-10T11:34:03.326Z,44.51
2019-06-10T11:36:34.940Z,45.21
2019-06-10T11:39:18.121Z,46.34
2019-06-10T11:41:52.475Z,47.01
2019-06-10T11:44:23.795Z,46.54
2019-06-10T11:46:57.541Z,46.35
2019-06-10T11:49:25.638Z,46.54
2019-06-10T11:51:56.521Z,46.89
2019-06-10T11:54:27.287Z,47.02
2019-06-10T11:56:58.591Z,46.39
2019-06-10T11:59:29.441Z,45.89
2019-06-10T12:02:05.007Z,45.97
2019-06-10T12:04:33.074Z,46.13
2019-06-10T12:07:03.406Z,46.17
2019-06-10T12:09:36.779Z,46.24
2019-06-10T12:12:28.255Z,46.46
2019-06-10T12:15:01.261Z,46.99
2019-06-10T12:17:42.953Z,46.90
2019-06-10T12:20:03.240Z,46.88
2019-06-10T12:22:33.744Z,47.22
2019-06-10T12:25:30.364Z,47.12
2019-06-10T12:27:37.733Z,47.52
2019-06-10T12:30:22.435Z,47.88
2019-06-10T12:32:57.184Z,47.66
2019-06-10T12:35:32.949Z,47.88
2019-06-10T12:38:06.192Z,47.74
2019-06-10T12:40:36.731Z,47.50
2019-06-10T12:43:07.813Z,46.65
2019-06-10T12:45:46.160Z,46.37
2019-06-10T12:48:18.398Z,46.50
2019-06-10T12:50:48.216Z,46.26
2019-06-10T12:53:18.107Z,46.62
2019-06-10T12:55:48.980Z,46.78
2019-06-10T12:58:22.580Z,46.93
2019-06-10T13:00:59.405Z,47.10
2019-06-10T13:03:29.365Z,46.97
2019-06-10T13:06:07.230Z,47.11
2019-06-10T13:08:39.094Z,47.67
2019-06-10T13:11:13.048Z,47.83
2019-06-10T13:13:42.694Z,47.43
2019-06-10T13:16:14.365Z,46.98
2019-06-10T13:18:44.851Z,46.77
2019-06-10T13:21:17.770Z,46.70
2019-06-10T13:23:54.190Z,46.76
2019-06-10T13:26:24.122Z,47.06
2019-06-10T13:28:54.159Z,47.38
2019-06-10T13:31:24.674Z,47.23
2019-06-10T13:33:54.734Z,47.40
2019-06-10T13:36:26.158Z,47.53
2019-06-10T13:39:03.968Z,47.32
2019-06-10T13:41:39.413Z,47.46
2019-06-10T13:44:15.296Z,47.86
2019-06-10T13:46:43.560Z,47.89
2019-06-10T13:49:15.415Z,47.69
2019-06-10T13:51:46.803Z,47.46
2019-06-10T13:54:16.929Z,47.40
2019-06-10T13:56:47.931Z,47.63
2019-06-10T13:59:18.575Z,47.81
2019-06-10T14:01:49.844Z,47.64
2019-06-10T14:04:25.416Z,47.76
2019-06-10T14:06:57.080Z,47.65
2019-06-10T14:09:25.591Z,47.85
2019-06-10T14:12:02.120Z,47.97
2019-06-10T14:14:42.384Z,47.92
2019-06-10T14:17:07.808Z,47.71
2019-06-10T14:19:37.287Z,47.81
2019-06-10T14:22:09.548Z,48.03
2019-06-10T14:24:42.109Z,48.14
2019-06-10T14:27:17.228Z,48.24
2019-06-10T14:30:06.593Z,48.44
2019-06-10T14:32:43.245Z,48.49
2019-06-10T14:35:16.268Z,48.41
2019-06-10T14:37:47.476Z,47.98
2019-06-10T14:40:26.846Z,48.29
2019-06-10T14:43:10.364Z,48.18
2019-06-10T14:45:42.333Z,47.91
2019-06-10T14:48:26.313Z,47.95
2019-06-10T14:50:58.534Z,48.12
2019-06-10T14:53:30.199Z,47.99
2019-06-10T14:56:17.282Z,48.10
2019-06-10T14:58:46.369Z,48.32
2019-06-10T15:01:21.964Z,48.37
2019-06-10T15:03:54.640Z,48.54
2019-06-10T15:06:24.401Z,48.51
2019-06-10T15:08:56.075Z,48.47
2019-06-10T15:11:28.020Z,48.43
2019-06-10T15:13:58.410Z,48.50
2019-06-10T15:16:29.059Z,48.60
2019-06-10T15:19:11.770Z,48.38
2019-06-10T15:21:32.381Z,48.44
2019-06-10T15:24:02.988Z,48.46
2019-06-10T15:26:33.909Z,48.32
2019-06-10T15:29:04.098Z,48.25
2019-06-10T15:31:37.314Z,48.22
2019-06-10T15:34:08.572Z,48.25
2019-06-10T15:36:38.991Z,48.27
2019-06-10T15:39:11.693Z,48.30
2019-06-10T15:41:42.886Z,48.40
2019-06-10T15:44:15.736Z,48.90
2019-06-10T15:46:44.179Z,50.40
2019-06-10T15:49:17.563Z,52.56
2019-06-10T15:51:46.187Z,54.21
2019-06-10T15:54:18.779Z,55.52
2019-06-10T15:56:52.826Z,56.90
2019-06-10T15:59:21.350Z,58.81
2019-06-10T16:01:53.087Z,60.12
2019-06-10T16:04:25.779Z,61.42
2019-06-10T16:06:54.602Z,62.80
2019-06-10T16:09:24.305Z,64.44
2019-06-10T16:11:54.872Z,66.88
2019-06-10T16:14:25.505Z,67.87
2019-06-10T16:16:55.918Z,68.47
2019-06-10T16:19:28.733Z,68.65
2019-06-10T16:21:58.447Z,69.07
2019-06-10T16:24:28.710Z,69.72
2019-06-10T16:26:58.689Z,70.16
2019-06-10T16:29:28.433Z,70.30
2019-06-10T16:31:58.286Z,69.81
2019-06-10T16:34:29.105Z,68.89
2019-06-10T16:36:58.919Z,68.27
2019-06-10T16:39:28.646Z,68.05
2019-06-10T16:41:58.879Z,67.71
2019-06-10T16:44:35.494Z,67.50
2019-06-10T16:47:03.043Z,66.68
2019-06-10T16:49:32.873Z,66.40
2019-06-10T16:52:03.064Z,66.08
2019-06-10T16:54:33.165Z,65.82
2019-06-10T16:57:03.960Z,65.63
2019-06-10T16:59:33.982Z,65.61
2019-06-10T17:02:04.360Z,66.10
2019-06-10T17:04:34.081Z,66.66
2019-06-10T17:07:03.907Z,66.56
2019-06-10T17:09:33.605Z,66.42
2019-06-10T17:12:14.000Z,66.16
2019-06-10T17:14:43.788Z,65.80
2019-06-10T17:17:13.647Z,65.44
2019-06-10T17:19:43.867Z,65.22
2019-06-10T17:22:13.776Z,65.47
2019-06-10T17:24:43.590Z,65.50
2019-06-10T17:27:13.340Z,65.42
2019-06-10T17:29:44.222Z,65.41
2019-06-10T17:32:13.956Z,66.15
2019-06-10T17:34:43.696Z,66.89
2019-06-10T17:37:13.572Z,67.61
2019-06-10T17:39:43.628Z,68.27
2019-06-10T17:42:15.823Z,68.55
2019-06-10T17:44:46.426Z,68.06
2019-06-10T17:47:16.102Z,67.38
2019-06-10T17:49:46.682Z,66.88
2019-06-10T17:52:16.605Z,66.59
2019-06-10T17:54:46.291Z,66.31
2019-06-10T17:57:15.996Z,66.00
2019-06-10T17:59:45.842Z,65.65
2019-06-10T18:02:15.787Z,65.57
2019-06-10T18:04:45.520Z,65.49
2019-06-10T18:07:15.729Z,65.10
2019-06-10T18:09:45.468Z,64.41
2019-06-10T18:12:15.181Z,63.87
2019-06-10T18:14:52.344Z,63.67
2019-06-10T18:17:23.845Z,63.43
2019-06-10T18:19:55.143Z,63.55
2019-06-10T18:22:37.094Z,63.43
2019-06-10T18:25:16.897Z,63.63
2019-06-10T18:27:52.382Z,63.43
2019-06-10T18:30:29.451Z,63.40
2019-06-10T18:33:02.965Z,63.31
2019-06-10T18:35:37.568Z,63.16
2019-06-10T18:38:08.974Z,62.98
2019-06-10T18:40:42.808Z,62.86
2019-06-10T18:43:13.796Z,62.80
2019-06-10T18:45:45.918Z,62.65
2019-06-10T18:48:16.890Z,62.52
2019-06-10T18:50:48.117Z,62.39
2019-06-10T18:53:23.238Z,62.28
2019-06-10T18:55:54.849Z,61.68
2019-06-10T18:58:27.787Z,61.42
2019-06-10T19:01:03.932Z,61.08
2019-06-10T19:03:34.706Z,60.94
2019-06-10T19:06:05.090Z,60.72
2019-06-10T19:08:38.622Z,60.83
2019-06-10T19:11:08.604Z,60.88
2019-06-10T19:13:40.957Z,60.81
2019-06-10T19:16:13.001Z,60.89
2019-06-10T19:18:44.366Z,60.97
2019-06-10T19:21:15.765Z,60.93
2019-06-10T19:23:46.815Z,61.25
2019-06-10T19:26:18.291Z,61.46
2019-06-10T19:28:50.002Z,61.67
2019-06-10T19:31:21.059Z,61.92
2019-06-10T19:33:52.052Z,62.36
2019-06-10T19:36:23.217Z,62.52
2019-06-10T19:38:57.885Z,62.72
2019-06-10T19:41:28.983Z,62.79
2019-06-10T19:44:02.478Z,62.66
2019-06-10T19:46:34.294Z,62.52
2019-06-10T19:49:07.392Z,62.70
2019-06-10T19:51:39.002Z,62.77
2019-06-10T19:54:12.379Z,62.58
2019-06-10T19:56:43.791Z,62.38
2019-06-10T19:59:15.589Z,62.41
2019-06-10T20:01:48.765Z,62.64
2019-06-10T20:04:22.521Z,62.60
2019-06-10T20:06:53.730Z,62.48
2019-06-10T20:09:25.579Z,62.54
2019-06-10T20:11:56.588Z,62.63
2019-06-10T20:14:27.447Z,62.56
2019-06-10T20:16:58.445Z,62.60
2019-06-10T20:19:29.788Z,62.44
2019-06-10T20:22:00.678Z,62.22
2019-06-10T20:24:31.282Z,61.97
2019-06-10T20:27:03.191Z,61.99
2019-06-10T20:29:35.698Z,61.73
2019-06-10T20:32:06.394Z,61.64
2019-06-10T20:34:37.528Z,61.70
2019-06-10T20:37:09.826Z,61.64
2019-06-10T20:39:43.177Z,61.08
2019-06-10T20:42:13.991Z,60.88
2019-06-10T20:44:46.288Z,60.71
2019-06-10T20:47:17.376Z,60.55
2019-06-10T20:49:51.940Z,60.85
2019-06-10T20:52:22.187Z,61.59
2019-06-10T20:54:53.432Z,61.30
2019-06-10T20:57:24.473Z,61.60
2019-06-10T20:59:55.450Z,62.59
2019-06-10T21:02:27.576Z,64.14
2019-06-10T21:05:02.579Z,64.82
2019-06-10T21:07:33.160Z,63.98
2019-06-10T21:10:06.671Z,64.12
2019-06-10T21:12:37.950Z,63.83
2019-06-10T21:15:09.760Z,63.23
2019-06-10T21:17:42.981Z,63.36
2019-06-10T21:20:13.632Z,63.36
2019-06-10T21:22:45.704Z,63.38
2019-06-10T21:25:16.797Z,64.11
2019-06-10T21:27:49.563Z,64.59
2019-06-10T21:30:36.557Z,64.93
2019-06-10T21:32:54.795Z,64.84
2019-06-10T21:35:27.867Z,64.71
2019-06-10T21:37:58.857Z,65.26
2019-06-10T21:40:30.061Z,65.50
2019-06-10T21:43:02.993Z,66.21
2019-06-10T21:45:32.825Z,66.20
2019-06-10T21:48:02.653Z,66.23
2019-06-10T21:50:33.406Z,66.18
2019-06-10T21:53:03.440Z,66.11
2019-06-10T21:55:33.421Z,66.02
2019-06-10T21:58:03.938Z,66.52
2019-06-10T22:00:52.881Z,66.85
2019-06-10T22:03:13.737Z,66.81
2019-06-10T22:05:44.218Z,66.75
2019-06-10T22:08:15.370Z,66.60
2019-06-10T22:10:45.903Z,66.83
2019-06-10T22:13:15.651Z,66.90
2019-06-10T22:15:46.365Z,67.12
2019-06-10T22:18:16.137Z,67.00
2019-06-10T22:20:46.791Z,66.84
2019-06-10T22:23:16.641Z,66.75
2019-06-10T22:25:46.800Z,66.88
2019-06-10T22:28:16.612Z,67.12
2019-06-10T22:30:47.146Z,67.23
2019-06-10T22:33:16.867Z,67.40
2019-06-10T22:35:47.477Z,67.87
2019-06-10T22:38:17.179Z,68.63
2019-06-10T22:40:48.844Z,69.27
2019-06-10T22:43:18.616Z,69.18
2019-06-10T22:45:52.535Z,69.61
2019-06-10T22:48:22.484Z,69.51
2019-06-10T22:50:55.358Z,69.45
2019-06-10T22:53:25.159Z,70.12
2019-06-10T22:55:57.411Z,70.06
2019-06-10T22:58:26.620Z,69.88
2019-06-10T23:00:57.861Z,70.13
2019-06-10T23:03:27.503Z,69.93
2019-06-10T23:05:58.432Z,70.02
2019-06-10T23:08:29.879Z,70.32
2019-06-10T23:10:59.877Z,70.38
2019-06-10T23:13:30.281Z,70.54
2019-06-10T23:16:02.489Z,70.66
2019-06-10T23:18:32.050Z,70.48
2019-06-10T23:21:04.340Z,70.48
2019-06-10T23:23:33.613Z,70.68
2019-06-10T23:26:03.377Z,70.82
2019-06-10T23:28:33.244Z,71.04
2019-06-10T23:31:05.297Z,71.04
2019-06-10T23:36:23.596Z,71.27
2019-06-10T23:38:55.253Z,71.50
2019-06-10T23:41:24.887Z,71.53
2019-06-10T23:43:55.043Z,71.54
2019-06-10T23:46:24.820Z,71.59
2019-06-10T23:48:55.459Z,71.83
2019-06-10T23:51:25.117Z,71.86
2019-06-10T23:53:58.423Z,71.87
2019-06-10T23:56:26.210Z,71.89
2019-06-10T23:58:57.481Z,71.89
